createdAt,value
2019-02-28T00:01:36.555Z,100.00
2019-02-28T00:04:04.142Z,100.00
2019-02-28T00:06:31.188Z,100.00
2019-02-28T00:08:58.267Z,100.00
2019-02-28T00:11:25.429Z,100.00
2019-02-28T00:13:55.989Z,100.00
2019-02-28T00:16:22.013Z,100.00
2019-02-28T00:18:49.828Z,100.00
2019-02-28T00:21:17.748Z,100.00
2019-02-28T00:23:44.842Z,100.00
2019-02-28T00:26:12.380Z,100.00
2019-02-28T00:28:39.468Z,100.00
2019-02-28T00:31:06.557Z,100.00
2019-02-28T00:33:39.910Z,100.00
2019-02-28T00:36:06.964Z,100.00
2019-02-28T00:38:34.041Z,100.00
2019-02-28T00:41:01.088Z,100.00
2019-02-28T00:43:28.248Z,100.00
2019-02-28T00:45:55.332Z,100.00
2019-02-28T00:48:22.463Z,100.00
2019-02-28T00:50:49.563Z,100.00
2019-02-28T00:53:16.809Z,100.00
2019-02-28T00:55:45.957Z,100.00
2019-02-28T00:58:13.961Z,100.00
2019-02-28T01:00:41.054Z,100.00
2019-02-28T01:03:08.104Z,100.00
2019-02-28T01:05:36.643Z,100.00
2019-02-28T01:08:04.152Z,100.00
2019-02-28T01:10:31.217Z,100.00
2019-02-28T01:12:58.269Z,100.00
2019-02-28T01:15:25.342Z,100.00
2019-02-28T01:17:52.428Z,100.00
2019-02-28T01:20:19.530Z,100.00
2019-02-28T01:22:50.474Z,100.00
2019-02-28T01:25:17.625Z,100.00
2019-02-28T01:27:44.674Z,100.00
2019-02-28T01:30:12.456Z,100.00
2019-02-28T01:32:39.532Z,100.00
2019-02-28T01:35:06.986Z,100.00
2019-02-28T01:37:34.017Z,100.00
2019-02-28T01:40:04.398Z,100.00
2019-02-28T01:42:30.247Z,100.00
2019-02-28T01:44:57.265Z,100.00
2019-02-28T01:47:24.354Z,100.00
2019-02-28T01:49:51.424Z,100.00
2019-02-28T01:52:18.481Z,100.00
2019-02-28T01:54:45.604Z,100.00
2019-02-28T01:57:12.778Z,100.00
2019-02-28T01:59:39.825Z,100.00
2019-02-28T02:02:07.028Z,100.00
2019-02-28T02:04:34.108Z,100.00
2019-02-28T02:07:01.143Z,100.00
2019-02-28T02:09:28.533Z,100.00
2019-02-28T02:11:58.024Z,100.00
2019-02-28T02:14:31.260Z,100.00
2019-02-28T02:17:01.250Z,100.00
2019-02-28T02:19:27.265Z,100.00
2019-02-28T02:21:54.356Z,100.00
2019-02-28T02:24:24.309Z,100.00
2019-02-28T02:26:52.256Z,100.00
2019-02-28T02:29:19.558Z,100.00
2019-02-28T02:31:46.613Z,100.00
2019-02-28T02:34:13.694Z,100.00
2019-02-28T02:36:40.755Z,100.00
2019-02-28T02:39:08.216Z,100.00
2019-02-28T02:41:35.272Z,100.00
2019-02-28T02:44:02.400Z,100.00
2019-02-28T02:46:29.535Z,100.00
2019-02-28T02:48:56.592Z,100.00
2019-02-28T02:51:23.672Z,100.00
2019-02-28T02:54:18.092Z,100.00
2019-02-28T02:56:41.990Z,100.00
2019-02-28T02:59:27.348Z,100.00
2019-02-28T03:01:56.239Z,100.00
2019-02-28T03:04:23.588Z,100.00
2019-02-28T03:06:50.789Z,100.00
2019-02-28T03:09:18.140Z,100.00
2019-02-28T03:11:46.799Z,100.00
2019-02-28T03:14:16.460Z,100.00
2019-02-28T03:16:42.897Z,100.00
2019-02-28T03:19:09.949Z,100.00
2019-02-28T03:21:37.040Z,100.00
2019-02-28T03:24:16.352Z,100.00
2019-02-28T03:26:44.744Z,100.00
2019-02-28T03:29:11.791Z,100.00
2019-02-28T03:31:38.876Z,100.00
2019-02-28T03:34:13.083Z,100.00
2019-02-28T03:36:34.907Z,100.00
2019-02-28T03:39:03.600Z,100.00
2019-02-28T03:41:30.655Z,100.00
2019-02-28T03:43:57.703Z,100.00
2019-02-28T03:46:24.800Z,100.00
2019-02-28T03:48:51.869Z,100.00
2019-02-28T03:51:19.012Z,100.00
2019-02-28T03:53:46.144Z,100.00
2019-02-28T03:56:14.645Z,100.00
2019-02-28T03:58:43.152Z,100.00
2019-02-28T04:01:47.320Z,100.00
2019-02-28T04:04:14.380Z,100.00
2019-02-28T04:06:41.560Z,100.00
2019-02-28T04:09:09.124Z,100.00
2019-02-28T04:11:36.286Z,100.00
2019-02-28T04:14:03.429Z,100.00
2019-02-28T04:16:30.528Z,100.00
2019-02-28T04:18:57.605Z,100.00
2019-02-28T04:21:24.703Z,100.00
2019-02-28T04:23:51.845Z,100.00
2019-02-28T04:26:18.891Z,100.00
2019-02-28T04:28:45.986Z,100.00
2019-02-28T04:31:18.904Z,100.00
2019-02-28T04:33:44.130Z,100.00
2019-02-28T04:36:11.229Z,100.00
2019-02-28T04:38:38.288Z,100.00
2019-02-28T04:41:05.449Z,100.00
2019-02-28T04:43:32.560Z,100.00
2019-02-28T04:45:59.619Z,100.00
2019-02-28T04:48:26.685Z,100.00
2019-02-28T04:50:53.775Z,100.00
2019-02-28T04:53:20.830Z,100.00
2019-02-28T04:55:47.901Z,100.00
2019-02-28T04:58:15.009Z,100.00
2019-02-28T05:00:42.084Z,100.00
2019-02-28T05:03:09.153Z,100.00
2019-02-28T05:05:36.252Z,100.00
2019-02-28T05:08:05.709Z,100.00
2019-02-28T05:10:35.874Z,100.00
2019-02-28T05:13:02.982Z,100.00
2019-02-28T05:15:30.044Z,100.00
2019-02-28T05:17:57.104Z,100.00
2019-02-28T05:20:24.193Z,100.00
2019-02-28T05:22:51.317Z,100.00
2019-02-28T05:25:18.846Z,100.00
2019-02-28T05:28:06.710Z,100.00
2019-02-28T05:30:33.539Z,100.00
2019-02-28T05:33:00.642Z,100.00
2019-02-28T05:35:27.711Z,100.00
2019-02-28T05:37:54.857Z,100.00
2019-02-28T05:40:23.710Z,100.00
2019-02-28T05:42:50.885Z,100.00
2019-02-28T05:45:17.985Z,100.00
2019-02-28T05:47:47.189Z,100.00
2019-02-28T05:50:16.756Z,100.00
2019-02-28T05:52:43.004Z,100.00
2019-02-28T05:55:10.059Z,100.00
2019-02-28T05:57:39.459Z,100.00
2019-02-28T06:00:06.940Z,100.00
2019-02-28T06:02:34.042Z,100.00
2019-02-28T06:05:01.425Z,100.00
2019-02-28T06:07:29.481Z,100.00
2019-02-28T06:09:56.864Z,100.00
2019-02-28T06:12:24.053Z,100.00
2019-02-28T06:14:51.112Z,100.00
2019-02-28T06:17:20.832Z,100.00
2019-02-28T06:19:48.961Z,100.00
2019-02-28T06:22:16.053Z,100.00
2019-02-28T06:24:44.830Z,100.00
2019-02-28T06:27:54.586Z,100.00
2019-02-28T06:30:21.777Z,100.00
2019-02-28T06:32:48.825Z,100.00
2019-02-28T06:35:17.753Z,100.00
2019-02-28T06:37:45.018Z,100.00
2019-02-28T06:40:12.654Z,100.00
2019-02-28T06:42:39.752Z,100.00
2019-02-28T06:45:11.802Z,100.00
2019-02-28T06:47:39.090Z,100.00
2019-02-28T06:50:06.928Z,100.00
2019-02-28T06:52:34.001Z,100.00
2019-02-28T06:55:01.050Z,100.00
2019-02-28T06:57:28.293Z,100.00
2019-02-28T06:59:55.407Z,100.00
2019-02-28T07:02:22.477Z,100.00
2019-02-28T07:04:50.576Z,100.00
2019-02-28T07:07:18.747Z,100.00
2019-02-28T07:09:50.399Z,100.00
2019-02-28T07:12:17.506Z,100.00
2019-02-28T07:14:49.218Z,100.00
2019-02-28T07:17:13.534Z,100.00
2019-02-28T07:19:40.659Z,100.00
2019-02-28T07:22:07.781Z,100.00
2019-02-28T07:24:37.605Z,100.00
2019-02-28T07:27:05.751Z,100.00
2019-02-28T07:29:32.816Z,100.00
2019-02-28T07:32:01.313Z,100.00
2019-02-28T07:34:28.596Z,100.00
2019-02-28T07:36:55.681Z,100.00
2019-02-28T07:39:22.767Z,100.00
2019-02-28T07:41:49.892Z,100.00
2019-02-28T07:44:21.202Z,100.00
2019-02-28T07:46:45.973Z,100.00
2019-02-28T07:49:13.107Z,100.00
2019-02-28T07:51:40.162Z,100.00
2019-02-28T07:54:07.268Z,100.00
2019-02-28T07:56:34.334Z,100.00
2019-02-28T07:59:05.314Z,100.00
2019-02-28T08:01:30.397Z,100.00
2019-02-28T08:03:57.568Z,100.00
2019-02-28T08:06:24.671Z,100.00
2019-02-28T08:08:51.757Z,100.00
2019-02-28T08:11:19.973Z,100.00
2019-02-28T08:13:47.737Z,100.00
2019-02-28T08:16:20.814Z,100.00
2019-02-28T08:18:51.093Z,100.00
2019-02-28T08:21:16.911Z,100.00
2019-02-28T08:23:44.039Z,100.00
2019-02-28T08:26:11.209Z,100.00
2019-02-28T08:28:40.270Z,100.00
2019-02-28T08:31:07.384Z,100.00
2019-02-28T08:33:34.400Z,100.00
2019-02-28T08:36:11.521Z,100.00
2019-02-28T08:38:36.325Z,100.00
2019-02-28T08:41:03.422Z,100.00
2019-02-28T08:43:30.520Z,100.00
2019-02-28T08:45:57.659Z,100.00
2019-02-28T08:49:27.871Z,100.00
2019-02-28T08:51:55.005Z,100.00
2019-02-28T08:54:26.125Z,100.00
2019-02-28T08:56:53.116Z,100.00
2019-02-28T08:59:22.574Z,100.00
2019-02-28T09:01:49.186Z,100.00
2019-02-28T09:04:16.283Z,100.00
2019-02-28T09:06:47.696Z,100.00
2019-02-28T09:09:14.783Z,100.00
2019-02-28T09:11:41.960Z,100.00
2019-02-28T09:14:10.394Z,100.00
2019-02-28T09:16:39.705Z,100.00
2019-02-28T09:19:06.557Z,100.00
2019-02-28T09:21:33.611Z,100.00
2019-02-28T09:24:00.834Z,100.00
2019-02-28T09:26:28.303Z,100.00
2019-02-28T09:28:56.981Z,100.00
2019-02-28T09:31:24.088Z,100.00
2019-02-28T09:33:51.164Z,100.00
2019-02-28T09:36:20.829Z,100.00
2019-02-28T09:38:47.232Z,100.00
2019-02-28T09:41:14.288Z,100.00
2019-02-28T09:43:41.576Z,100.00
2019-02-28T09:46:09.154Z,100.00
2019-02-28T09:48:37.085Z,99.74
2019-02-28T09:51:42.575Z,99.82
2019-02-28T09:54:09.698Z,99.53
2019-02-28T09:56:36.780Z,99.29
2019-02-28T09:59:03.975Z,98.04
2019-02-28T10:01:32.297Z,97.34
2019-02-28T10:03:59.397Z,97.00
2019-02-28T10:06:26.435Z,96.93
2019-02-28T10:08:53.519Z,95.33
2019-02-28T10:11:21.797Z,95.28
2019-02-28T10:13:49.607Z,94.62
2019-02-28T10:16:18.062Z,93.94
2019-02-28T10:18:45.382Z,94.57
2019-02-28T10:21:12.517Z,93.30
2019-02-28T10:23:39.682Z,94.26
2019-02-28T10:26:06.873Z,94.53
2019-02-28T10:28:35.352Z,94.06
2019-02-28T10:31:02.749Z,93.20
2019-02-28T10:33:29.855Z,92.47
2019-02-28T10:36:00.487Z,93.92
2019-02-28T10:38:29.516Z,92.62
2019-02-28T10:40:56.552Z,92.96
2019-02-28T10:43:23.626Z,92.97
2019-02-28T10:45:51.026Z,92.89
2019-02-28T10:48:18.172Z,93.75
2019-02-28T10:50:45.224Z,93.08
2019-02-28T10:53:12.282Z,92.45
2019-02-28T10:55:39.773Z,91.96
2019-02-28T10:58:15.479Z,93.09
2019-02-28T11:00:43.684Z,93.71
2019-02-28T11:03:10.848Z,92.95
2019-02-28T11:05:39.655Z,92.80
2019-02-28T11:08:09.725Z,93.22
2019-02-28T11:10:38.658Z,91.56
2019-02-28T11:13:10.200Z,92.69
2019-02-28T11:15:37.366Z,92.46
2019-02-28T11:18:08.608Z,92.26
2019-02-28T11:20:34.201Z,92.29
2019-02-28T11:23:01.504Z,91.08
2019-02-28T11:25:28.809Z,90.31
2019-02-28T11:27:55.918Z,91.51
2019-02-28T11:30:23.824Z,90.88
2019-02-28T11:32:50.921Z,90.56
2019-02-28T11:35:20.141Z,90.39
2019-02-28T11:37:47.487Z,91.35
2019-02-28T11:40:16.713Z,91.60
2019-02-28T11:42:43.799Z,90.30
2019-02-28T11:45:13.390Z,89.32
2019-02-28T11:47:42.657Z,87.86
2019-02-28T11:50:10.454Z,87.07
2019-02-28T11:52:37.588Z,87.32
2019-02-28T11:55:05.831Z,87.09
2019-02-28T11:57:32.879Z,86.48
2019-02-28T12:00:02.340Z,85.77
2019-02-28T12:02:53.307Z,85.33
2019-02-28T12:05:17.200Z,84.83
2019-02-28T12:07:50.360Z,83.99
2019-02-28T12:10:17.847Z,82.15
2019-02-28T12:12:45.413Z,81.64
2019-02-28T12:15:13.931Z,83.24
2019-02-28T12:17:41.040Z,82.26
2019-02-28T12:20:09.839Z,80.75
2019-02-28T12:22:36.968Z,80.21
2019-02-28T12:25:07.587Z,80.67
2019-02-28T12:27:34.371Z,80.58
2019-02-28T12:30:01.444Z,78.73
2019-02-28T12:32:28.488Z,79.63
2019-02-28T12:34:55.546Z,79.39
2019-02-28T12:37:23.124Z,79.22
2019-02-28T12:39:50.453Z,77.83
2019-02-28T12:42:17.534Z,77.88
2019-02-28T12:44:46.284Z,77.00
2019-02-28T12:47:17.365Z,76.87
2019-02-28T12:49:50.896Z,77.51
2019-02-28T12:52:17.966Z,79.93
2019-02-28T12:54:45.079Z,78.71
2019-02-28T12:57:13.052Z,77.44
2019-02-28T13:00:19.843Z,77.74
2019-02-28T13:03:09.175Z,79.75
2019-02-28T13:05:36.382Z,81.03
2019-02-28T13:08:05.782Z,81.88
2019-02-28T13:11:26.818Z,81.93
2019-02-28T13:13:53.931Z,83.19
2019-02-28T13:16:21.424Z,85.91
2019-02-28T13:18:48.746Z,88.41
2019-02-28T13:21:15.863Z,89.27
2019-02-28T13:23:42.978Z,91.56
2019-02-28T13:26:10.262Z,94.21
2019-02-28T13:28:37.333Z,95.54
2019-02-28T13:31:06.985Z,96.37
2019-02-28T13:33:34.058Z,96.88
2019-02-28T13:36:01.322Z,98.19
2019-02-28T13:38:28.442Z,98.55
2019-02-28T13:40:55.571Z,98.71
2019-02-28T13:43:22.924Z,99.35
2019-02-28T13:45:50.778Z,99.28
2019-02-28T13:48:26.159Z,98.41
2019-02-28T13:50:48.257Z,98.66
2019-02-28T13:53:17.674Z,98.52
2019-02-28T13:55:44.368Z,98.88
2019-02-28T13:58:11.489Z,99.29
2019-02-28T14:00:43.977Z,99.19
2019-02-28T14:03:09.619Z,98.46
2019-02-28T14:05:40.912Z,98.54
2019-02-28T14:08:09.738Z,97.09
2019-02-28T14:10:34.745Z,97.64
2019-02-28T14:13:01.969Z,97.50
2019-02-28T14:15:34.936Z,96.83
2019-02-28T14:18:02.297Z,96.64
2019-02-28T14:21:03.106Z,96.36
2019-02-28T14:23:29.596Z,94.20
2019-02-28T14:26:31.095Z,94.32
2019-02-28T14:28:58.366Z,93.71
2019-02-28T14:31:25.423Z,94.00
2019-02-28T14:33:54.392Z,93.46
2019-02-28T14:36:21.489Z,93.98
2019-02-28T14:38:48.802Z,94.12
2019-02-28T14:41:15.852Z,94.70
2019-02-28T14:43:43.029Z,94.49
2019-02-28T14:46:10.257Z,94.10
2019-02-28T14:48:39.931Z,92.56
2019-02-28T14:51:06.319Z,90.48
2019-02-28T14:53:33.450Z,90.64
2019-02-28T14:56:00.507Z,91.21
2019-02-28T14:58:27.791Z,91.76
2019-02-28T15:00:55.032Z,92.14
2019-02-28T15:03:22.106Z,91.46
2019-02-28T15:05:49.200Z,90.80
2019-02-28T15:08:16.298Z,91.48
2019-02-28T15:10:43.329Z,91.56
2019-02-28T15:13:10.439Z,91.99
2019-02-28T15:15:37.580Z,92.46
2019-02-28T15:18:04.680Z,92.56
2019-02-28T15:20:32.957Z,92.89
2019-02-28T15:23:00.523Z,93.18
2019-02-28T15:25:27.637Z,92.39
2019-02-28T15:27:54.762Z,93.29
2019-02-28T15:30:24.395Z,92.85
2019-02-28T15:32:54.298Z,93.61
2019-02-28T15:35:20.633Z,94.26
2019-02-28T15:37:47.698Z,94.90
2019-02-28T15:40:24.527Z,96.45
2019-02-28T15:42:50.906Z,97.02
2019-02-28T15:45:18.010Z,97.71
2019-02-28T15:47:45.192Z,98.13
2019-02-28T15:50:13.540Z,98.15
2019-02-28T15:52:42.383Z,98.66
2019-02-28T15:55:10.653Z,99.15
2019-02-28T15:57:38.222Z,98.47
2019-02-28T16:00:06.962Z,97.62
2019-02-28T16:02:34.052Z,97.70
2019-02-28T16:05:05.470Z,97.06
2019-02-28T16:07:33.373Z,96.87
2019-02-28T16:09:59.215Z,96.69
2019-02-28T16:12:26.491Z,96.77
2019-02-28T16:14:53.542Z,97.01
2019-02-28T16:17:20.796Z,97.42
2019-02-28T16:19:47.873Z,97.17
2019-02-28T16:22:18.210Z,96.55
2019-02-28T16:24:44.108Z,96.46
2019-02-28T16:27:11.255Z,96.44
2019-02-28T16:29:38.648Z,96.43
2019-02-28T16:32:05.745Z,96.48
2019-02-28T16:34:32.982Z,96.52
2019-02-28T16:37:01.009Z,95.85
2019-02-28T16:39:29.093Z,95.04
2019-02-28T16:41:56.143Z,95.11
2019-02-28T16:44:23.328Z,94.20
2019-02-28T16:46:50.900Z,94.64
2019-02-28T16:49:18.179Z,93.38
2019-02-28T16:51:45.296Z,93.29
2019-02-28T16:54:12.458Z,93.54
2019-02-28T16:56:39.549Z,93.53
2019-02-28T16:59:06.689Z,95.01
2019-02-28T17:01:33.756Z,94.90
2019-02-28T17:04:00.820Z,93.61
2019-02-28T17:06:28.122Z,93.55
2019-02-28T17:09:20.683Z,93.46
2019-02-28T17:12:09.312Z,93.27
2019-02-28T17:14:36.384Z,93.26
2019-02-28T17:17:26.023Z,94.13
2019-02-28T17:19:53.098Z,94.97
2019-02-28T17:22:20.166Z,94.95
2019-02-28T17:24:47.304Z,95.07
2019-02-28T17:27:28.359Z,95.25
2019-02-28T17:30:28.208Z,95.69
2019-02-28T17:32:55.428Z,96.02
2019-02-28T17:35:22.496Z,96.27
2019-02-28T17:38:44.888Z,97.04
2019-02-28T17:41:13.007Z,97.53
2019-02-28T17:43:40.294Z,98.36
2019-02-28T17:46:09.158Z,99.60
2019-02-28T17:49:12.195Z,100.00
2019-02-28T17:52:23.036Z,99.44
2019-02-28T17:55:50.070Z,100.00
2019-02-28T17:58:43.946Z,100.00
2019-02-28T18:01:48.923Z,100.00
2019-02-28T18:04:56.083Z,100.00
2019-02-28T18:07:49.331Z,100.00
2019-02-28T18:10:48.262Z,100.00
2019-02-28T18:13:45.107Z,100.00
2019-02-28T18:16:41.359Z,100.00
2019-02-28T18:19:37.251Z,100.00
2019-02-28T18:22:48.756Z,100.00
2019-02-28T18:25:52.322Z,100.00
2019-02-28T18:29:03.601Z,100.00
2019-02-28T18:31:30.672Z,100.00
2019-02-28T18:34:00.759Z,100.00
2019-02-28T18:36:29.606Z,100.00
2019-02-28T18:38:57.157Z,100.00
2019-02-28T18:41:24.249Z,100.00
2019-02-28T18:43:51.543Z,100.00
2019-02-28T18:46:18.624Z,100.00
2019-02-28T18:48:45.725Z,100.00
2019-02-28T18:51:12.900Z,100.00
2019-02-28T18:53:39.997Z,100.00
2019-02-28T18:56:07.061Z,100.00
2019-02-28T18:58:34.193Z,100.00
2019-02-28T19:01:04.145Z,100.00
2019-02-28T19:03:31.209Z,100.00
2019-02-28T19:05:58.323Z,100.00
2019-02-28T19:08:25.378Z,100.00
2019-02-28T19:10:52.529Z,100.00
2019-02-28T19:13:19.618Z,100.00
2019-02-28T19:15:46.805Z,100.00
2019-02-28T19:18:14.005Z,100.00
2019-02-28T19:20:41.097Z,100.00
2019-02-28T19:23:08.168Z,100.00
2019-02-28T19:25:35.256Z,100.00
2019-02-28T19:28:02.482Z,100.00
2019-02-28T19:30:29.627Z,100.00
2019-02-28T19:32:56.879Z,100.00
2019-02-28T19:35:23.930Z,100.00
2019-02-28T19:37:51.322Z,100.00
2019-02-28T19:40:18.386Z,100.00
2019-02-28T19:42:45.503Z,100.00
2019-02-28T19:45:14.151Z,100.00
2019-02-28T19:47:41.258Z,100.00
2019-02-28T19:50:09.371Z,100.00
2019-02-28T19:52:36.509Z,100.00
2019-02-28T19:55:04.199Z,100.00
2019-02-28T19:57:31.277Z,100.00
2019-02-28T19:59:58.414Z,100.00
2019-02-28T20:02:25.469Z,100.00
2019-02-28T20:04:53.685Z,100.00
2019-02-28T20:07:22.126Z,100.00
2019-02-28T20:09:49.210Z,100.00
2019-02-28T20:12:16.289Z,100.00
2019-02-28T20:14:43.384Z,100.00
2019-02-28T20:17:10.479Z,100.00
2019-02-28T20:19:37.575Z,100.00
2019-02-28T20:22:04.692Z,100.00
2019-02-28T20:24:31.904Z,100.00
2019-02-28T20:26:59.041Z,100.00
2019-02-28T20:29:26.569Z,100.00
2019-02-28T20:31:53.660Z,100.00
2019-02-28T20:34:20.911Z,100.00
2019-02-28T20:36:48.132Z,100.00
2019-02-28T20:39:15.395Z,100.00
2019-02-28T20:41:42.524Z,100.00
2019-02-28T20:44:09.731Z,100.00
2019-02-28T20:46:36.861Z,100.00
2019-02-28T20:49:04.016Z,100.00
2019-02-28T20:51:31.131Z,100.00
2019-02-28T20:53:58.434Z,100.00
2019-02-28T20:56:25.576Z,100.00
2019-02-28T20:58:53.009Z,100.00
2019-02-28T21:01:20.115Z,100.00
2019-02-28T21:03:47.222Z,100.00
2019-02-28T21:06:36.539Z,100.00
2019-02-28T21:09:06.292Z,100.00
2019-02-28T21:11:33.405Z,100.00
2019-02-28T21:14:03.498Z,100.00
2019-02-28T21:16:30.589Z,100.00
2019-02-28T21:18:58.800Z,100.00
2019-02-28T21:21:25.993Z,100.00
2019-02-28T21:23:53.113Z,100.00
2019-02-28T21:26:20.270Z,100.00
2019-02-28T21:28:47.489Z,100.00
2019-02-28T21:31:14.618Z,100.00
2019-02-28T21:33:41.741Z,100.00
2019-02-28T21:36:09.173Z,100.00
2019-02-28T21:38:36.344Z,100.00
2019-02-28T21:41:03.720Z,100.00
2019-02-28T21:43:30.804Z,100.00
2019-02-28T21:45:57.907Z,100.00
2019-02-28T21:48:24.978Z,100.00
2019-02-28T21:50:52.727Z,100.00
2019-02-28T21:53:19.823Z,100.00
2019-02-28T21:55:46.885Z,100.00
2019-02-28T21:58:14.054Z,100.00
2019-02-28T22:00:41.192Z,100.00
2019-02-28T22:03:08.292Z,100.00
2019-02-28T22:05:35.519Z,100.00
2019-02-28T22:08:04.428Z,100.00
2019-02-28T22:10:31.603Z,100.00
2019-02-28T22:12:59.749Z,100.00
2019-02-28T22:15:27.182Z,100.00
2019-02-28T22:17:54.269Z,100.00
2019-02-28T22:20:21.328Z,100.00
2019-02-28T22:22:48.534Z,100.00
2019-02-28T22:25:15.692Z,100.00
2019-02-28T22:27:43.392Z,100.00
2019-02-28T22:30:37.768Z,100.00
2019-02-28T22:33:07.381Z,100.00
2019-02-28T22:39:08.240Z,100.00
2019-02-28T22:41:35.352Z,100.00
2019-02-28T22:44:03.025Z,100.00
2019-02-28T22:46:30.131Z,100.00
2019-02-28T22:48:57.356Z,100.00
2019-02-28T22:51:24.497Z,100.00
2019-02-28T22:53:51.788Z,100.00
2019-02-28T22:56:18.855Z,100.00
2019-02-28T22:59:04.607Z,100.00
2019-02-28T23:01:33.843Z,100.00
2019-02-28T23:04:00.917Z,100.00
2019-02-28T23:06:28.027Z,100.00
2019-02-28T23:08:56.241Z,100.00
2019-02-28T23:11:23.317Z,100.00
2019-02-28T23:13:50.446Z,100.00
2019-02-28T23:16:17.625Z,100.00
2019-02-28T23:18:44.717Z,100.00
2019-02-28T23:21:11.841Z,100.00
2019-02-28T23:23:38.930Z,100.00
2019-02-28T23:26:13.517Z,100.00
2019-02-28T23:28:54.087Z,100.00
2019-02-28T23:32:08.282Z,100.00
2019-02-28T23:34:38.217Z,100.00
2019-02-28T23:37:05.323Z,100.00
2019-02-28T23:39:32.557Z,100.00
2019-02-28T23:41:59.639Z,100.00
2019-02-28T23:44:26.718Z,100.00
2019-02-28T23:46:53.850Z,100.00
2019-02-28T23:49:20.908Z,100.00
2019-02-28T23:51:47.973Z,100.00
2019-02-28T23:54:15.079Z,100.00
2019-02-28T23:56:42.196Z,100.00
2019-02-28T23:59:09.312Z,100.00
